This is the latest recevied weather packets stored in our database for station/object DH1FR-13. If no packets are shown the sender has not sent any weather packets the latest 10 day(s).
| Time | Temp. | Humidity | Pressure | Rain* | Wind** | Luminosity | Snow |
|---|---|---|---|---|---|---|---|
| 1787407801 | 16.11° C | 87% | 1022.1 hPa | 6.1 mm | 0 m/s | - | - |
| 1787407201 | 15.56° C | 87% | 1022.3 hPa | 6.1 mm | 0 m/s | - | - |
| 1787406601 | 15° C | 92% | 1022.3 hPa | 6.1 mm | 0 m/s | - | - |
| 1787406002 | 13.89° C | 89% | 1022.2 hPa | 5.33 mm | 0 m/s | - | - |
| 1787405401 | 16.11° C | 80% | 1022 hPa | 2.54 mm | 0 m/s | - | - |
| 1787404801 | 18.89° C | 62% | 1021.4 hPa | 2.03 mm | 0 m/s | - | - |
| 1787404201 | 20° C | 60% | 1021.2 hPa | 2.03 mm | 0 m/s | - | - |
| 1787403601 | 20° C | 62% | 1021.1 hPa | 2.03 mm | 0 m/s | - | - |
| 1787403001 | 20° C | 60% | 1021.4 hPa | 2.03 mm | 0 m/s | - | - |
| 1787402400 | 19.44° C | 65% | 1021.4 hPa | 2.03 mm | 0 m/s | - | - |
| 1787401801 | 19.44° C | 63% | 1021.4 hPa | 2.03 mm | 0 m/s | - | - |
| 1787401202 | 18.89° C | 66% | 1021.5 hPa | 2.03 mm | 0 m/s | - | - |
| 1787400601 | 19.44° C | 64% | 1021.3 hPa | 2.03 mm | 0 m/s | - | - |
| 1787400001 | 18.89° C | 67% | 1021 hPa | 2.03 mm | 0 m/s | - | - |
| 1787399401 | 18.89° C | 69% | 1021.4 hPa | 2.03 mm | 0 m/s | - | - |
| 1787398801 | 17.22° C | 69% | 1021.2 hPa | 2.03 mm | 0 m/s | - | - |
| 1787398201 | 17.22° C | 70% | 1021 hPa | 2.03 mm | 0 m/s | - | - |
| 1787397602 | 17.22° C | 72% | 1021 hPa | 2.03 mm | 0 m/s | - | - |
| 1787397001 | 16.67° C | 73% | 1021.1 hPa | 2.03 mm | 0 m/s | - | - |
| 1787396400 | 16.67° C | 73% | 1021 hPa | 2.03 mm | 0 m/s | - | - |
| 1787395801 | 16.67° C | 73% | 1020.8 hPa | 2.03 mm | 0 m/s | - | - |
| 1787395200 | 17.22° C | 71% | 1020.8 hPa | 2.03 mm | 0 m/s | - | - |
| 1787394601 | 17.22° C | 73% | 1020.7 hPa | 2.03 mm | 0 m/s | - | - |
| 1787394002 | 16.67° C | 76% | 1020.8 hPa | 2.03 mm | 0 m/s | - | - |
| 1787393401 | 16.11° C | 80% | 1020.6 hPa | 2.03 mm | 0 m/s | - | - |
* Rain latest hour (hover to see other rain measurements)
** Current wind speed in m/s (hover to see current wind gust speed)